createdAt,value
2018-02-15T00:02:09.994Z,108.00
2018-02-15T00:04:37.600Z,73.53
2018-02-15T00:07:05.221Z,102.07
2018-02-15T00:09:32.859Z,85.37
2018-02-15T00:12:00.486Z,91.37
2018-02-15T00:14:28.107Z,94.83
2018-02-15T00:16:55.709Z,99.73
2018-02-15T00:19:23.359Z,105.87
2018-02-15T00:21:50.985Z,103.37
2018-02-15T00:24:18.619Z,94.20
2018-02-15T00:26:46.978Z,93.43
2018-02-15T00:29:15.389Z,110.37
2018-02-15T00:31:43.005Z,103.47
2018-02-15T00:34:10.652Z,101.37
2018-02-15T00:36:38.268Z,94.93
2018-02-15T00:39:06.057Z,94.63
2018-02-15T00:41:33.659Z,108.37
2018-02-15T00:44:01.277Z,99.30
2018-02-15T00:46:28.924Z,107.80
2018-02-15T00:48:56.522Z,109.43
2018-02-15T00:51:24.163Z,97.70
2018-02-15T00:53:51.813Z,86.60
2018-02-15T00:56:19.449Z,93.70
2018-02-15T00:58:47.104Z,85.40
2018-02-15T01:01:14.740Z,73.77
2018-02-15T01:03:42.337Z,85.53
2018-02-15T01:06:10.009Z,91.83
2018-02-15T01:08:37.642Z,84.70
2018-02-15T01:11:06.011Z,81.30
2018-02-15T01:13:34.405Z,98.77
2018-02-15T01:16:02.016Z,104.63
2018-02-15T01:18:29.667Z,80.57
2018-02-15T01:20:57.284Z,98.93
2018-02-15T01:23:24.926Z,87.87
2018-02-15T01:25:53.332Z,107.20
2018-02-15T01:28:20.964Z,106.00
2018-02-15T01:30:48.568Z,111.63
2018-02-15T01:33:16.223Z,106.77
2018-02-15T01:35:43.839Z,90.07
2018-02-15T01:38:11.490Z,72.30
2018-02-15T01:40:39.122Z,80.97
2018-02-15T01:43:06.773Z,87.80
2018-02-15T01:45:34.398Z,91.30
2018-02-15T01:48:02.812Z,84.43
2018-02-15T01:50:30.434Z,91.60
2018-02-15T01:52:58.817Z,86.23
2018-02-15T01:55:27.229Z,77.23
2018-02-15T01:57:54.840Z,75.57
2018-02-15T02:00:22.477Z,71.07
2018-02-15T02:02:50.079Z,79.93
2018-02-15T02:05:18.475Z,84.70
2018-02-15T02:07:46.112Z,79.20
2018-02-15T02:10:14.514Z,74.13
2018-02-15T02:12:42.126Z,95.03
2018-02-15T02:15:09.767Z,86.43
2018-02-15T02:17:37.369Z,78.50
2018-02-15T02:20:05.755Z,63.20
2018-02-15T02:22:34.153Z,61.90
2018-02-15T02:25:01.922Z,70.57
2018-02-15T02:27:29.566Z,81.63
2018-02-15T02:29:57.173Z,74.20
2018-02-15T02:32:24.823Z,73.70
2018-02-15T02:34:53.212Z,64.37
2018-02-15T02:37:20.847Z,65.73
2018-02-15T02:39:48.461Z,67.27
2018-02-15T02:42:16.098Z,77.93
2018-02-15T02:44:43.713Z,67.00
2018-02-15T02:47:11.347Z,67.47
2018-02-15T02:49:39.811Z,81.20
2018-02-15T02:52:07.447Z,68.83
2018-02-15T02:54:35.058Z,63.97
2018-02-15T02:57:03.447Z,66.67
2018-02-15T02:59:31.107Z,61.87
2018-02-15T03:01:58.718Z,58.10
2018-02-15T03:04:26.352Z,50.60
2018-02-15T03:06:53.956Z,62.40
2018-02-15T03:09:21.595Z,62.50
2018-02-15T03:11:49.200Z,58.07
2018-02-15T03:14:17.590Z,48.00
2018-02-15T03:16:45.207Z,67.20
2018-02-15T03:19:12.861Z,57.30
2018-02-15T03:21:40.491Z,73.70
2018-02-15T03:24:08.127Z,56.03
2018-02-15T03:26:36.493Z,55.80
2018-02-15T03:29:04.990Z,58.20
2018-02-15T03:31:32.651Z,58.33
2018-02-15T03:34:00.284Z,69.30
2018-02-15T03:36:27.886Z,53.00
2018-02-15T03:38:55.535Z,67.40
2018-02-15T03:41:23.144Z,49.50
2018-02-15T03:43:50.793Z,54.37
2018-02-15T03:46:18.411Z,67.73
2018-02-15T03:48:46.061Z,56.90
2018-02-15T03:51:14.457Z,58.40
2018-02-15T03:53:42.128Z,55.53
2018-02-15T03:56:09.748Z,52.23
2018-02-15T03:58:38.138Z,57.80
2018-02-15T04:01:06.540Z,62.43
2018-02-15T04:03:34.136Z,49.67
2018-02-15T04:06:01.831Z,63.17
2018-02-15T04:08:29.468Z,59.03
2018-02-15T04:10:57.140Z,58.27
2018-02-15T04:13:24.898Z,60.43
2018-02-15T04:15:52.552Z,62.70
2018-02-15T04:18:20.156Z,60.77
2018-02-15T04:20:47.783Z,56.93
2018-02-15T04:23:15.395Z,58.17
2018-02-15T04:25:43.034Z,63.43
2018-02-15T04:28:11.530Z,59.23
2018-02-15T04:30:39.164Z,55.47
2018-02-15T04:33:07.547Z,74.27
2018-02-15T04:35:35.942Z,59.03
2018-02-15T04:38:03.556Z,73.27
2018-02-15T04:40:31.212Z,63.30
2018-02-15T04:42:58.952Z,60.87
2018-02-15T04:45:26.546Z,66.30
2018-02-15T04:47:54.182Z,68.10
2018-02-15T04:50:21.782Z,62.50
2018-02-15T04:52:50.187Z,65.63
2018-02-15T04:55:17.790Z,63.40
2018-02-15T04:57:45.428Z,61.47
2018-02-15T05:00:13.027Z,64.37
2018-02-15T05:02:40.685Z,67.07
2018-02-15T05:05:08.298Z,79.70
2018-02-15T05:07:35.968Z,61.40
2018-02-15T05:10:03.573Z,75.40
2018-02-15T05:12:31.185Z,69.93
2018-02-15T05:14:58.825Z,65.57
2018-02-15T05:17:26.422Z,72.83
2018-02-15T05:19:54.069Z,54.10
2018-02-15T05:22:21.662Z,69.97
2018-02-15T05:24:49.305Z,65.63
2018-02-15T05:27:16.903Z,72.17
2018-02-15T05:29:45.311Z,84.57
2018-02-15T05:32:12.915Z,71.10
2018-02-15T05:34:40.585Z,65.37
2018-02-15T05:37:09.782Z,73.63
2018-02-15T05:39:37.446Z,75.83
2018-02-15T05:42:05.297Z,68.13
2018-02-15T05:44:33.865Z,65.20
2018-02-15T05:47:01.476Z,76.60
2018-02-15T05:49:29.900Z,66.47
2018-02-15T05:51:57.503Z,59.80
2018-02-15T05:54:25.140Z,64.83
2018-02-15T05:56:52.738Z,65.37
2018-02-15T05:59:21.139Z,68.07
2018-02-15T06:01:48.741Z,90.80
2018-02-15T06:04:16.340Z,67.13
2018-02-15T06:06:44.743Z,72.33
2018-02-15T06:09:12.348Z,65.27
2018-02-15T06:11:39.972Z,68.70
2018-02-15T06:14:07.602Z,60.43
2018-02-15T06:16:35.294Z,60.83
2018-02-15T06:19:02.899Z,81.73
2018-02-15T06:21:30.681Z,70.33
2018-02-15T06:23:59.200Z,72.13
2018-02-15T06:26:26.975Z,66.17
2018-02-15T06:28:54.738Z,64.77
2018-02-15T06:31:22.483Z,65.83
2018-02-15T06:33:50.245Z,64.47
2018-02-15T06:36:17.989Z,81.80
2018-02-15T06:38:45.758Z,61.27
2018-02-15T06:41:13.495Z,57.30
2018-02-15T06:43:42.041Z,54.00
2018-02-15T06:46:09.793Z,70.80
2018-02-15T06:48:37.571Z,51.90
2018-02-15T06:51:05.459Z,60.97
2018-02-15T06:53:33.248Z,68.53
2018-02-15T06:56:01.819Z,68.43
2018-02-15T06:58:29.603Z,62.80
2018-02-15T07:00:57.343Z,65.83
2018-02-15T07:03:25.856Z,72.30
2018-02-15T07:05:53.626Z,68.40
2018-02-15T07:08:21.368Z,65.20
2018-02-15T07:10:49.169Z,69.23
2018-02-15T07:13:16.942Z,71.73
2018-02-15T07:15:44.725Z,65.47
2018-02-15T07:18:12.481Z,66.17
2018-02-15T07:20:40.263Z,62.50
2018-02-15T07:23:08.004Z,66.93
2018-02-15T07:25:36.790Z,57.40
2018-02-15T07:28:04.549Z,65.00
2018-02-15T07:30:32.334Z,58.83
2018-02-15T07:33:00.079Z,79.93
2018-02-15T07:35:27.824Z,59.83
2018-02-15T07:37:55.604Z,71.03
2018-02-15T07:40:23.358Z,72.73
2018-02-15T07:42:51.155Z,70.40
2018-02-15T07:45:18.906Z,64.20
2018-02-15T07:47:46.691Z,65.23
2018-02-15T07:50:15.228Z,61.63
2018-02-15T07:52:43.008Z,61.13
2018-02-15T07:55:10.769Z,71.73
2018-02-15T07:57:38.560Z,58.63
2018-02-15T08:00:07.105Z,64.70
2018-02-15T08:02:34.885Z,61.67
2018-02-15T08:05:02.756Z,59.93
2018-02-15T08:07:30.519Z,58.73
2018-02-15T08:09:58.304Z,60.63
2018-02-15T08:12:26.066Z,65.87
2018-02-15T08:14:53.860Z,58.77
2018-02-15T08:17:21.603Z,51.00
2018-02-15T08:19:50.136Z,53.50
2018-02-15T08:22:17.910Z,59.63
2018-02-15T08:24:46.429Z,56.93
2018-02-15T08:27:14.972Z,51.60
2018-02-15T08:29:42.718Z,52.23
2018-02-15T08:32:10.500Z,46.53
2018-02-15T08:34:38.272Z,48.00
2018-02-15T08:37:06.027Z,47.50
2018-02-15T08:39:33.821Z,45.67
2018-02-15T08:42:01.658Z,68.43
2018-02-15T08:44:29.435Z,54.97
2018-02-15T08:46:57.197Z,48.73
2018-02-15T08:49:24.982Z,49.97
2018-02-15T08:51:52.762Z,51.97
2018-02-15T08:54:20.561Z,45.80
2018-02-15T08:56:48.319Z,50.77
2018-02-15T08:59:16.066Z,58.10
2018-02-15T09:01:43.868Z,44.03
2018-02-15T09:04:11.632Z,53.23
2018-02-15T09:06:39.419Z,45.30
2018-02-15T09:09:07.169Z,40.80
2018-02-15T09:11:34.962Z,48.10
2018-02-15T09:14:03.485Z,47.40
2018-02-15T09:16:31.255Z,50.80
2018-02-15T09:18:59.034Z,49.60
2018-02-15T09:21:26.794Z,48.13
2018-02-15T09:23:54.593Z,48.77
2018-02-15T09:26:22.339Z,54.80
2018-02-15T09:28:50.155Z,50.77
2018-02-15T09:31:17.921Z,50.60
2018-02-15T09:33:45.668Z,45.53
2018-02-15T09:36:14.250Z,49.27
2018-02-15T09:38:42.798Z,39.73
2018-02-15T09:41:10.636Z,44.50
2018-02-15T09:43:38.434Z,62.90
2018-02-15T09:46:06.188Z,63.00
2018-02-15T09:48:33.993Z,42.17
2018-02-15T09:51:02.021Z,47.10
2018-02-15T09:53:29.801Z,48.23
2018-02-15T09:55:57.551Z,46.77
2018-02-15T09:58:25.318Z,41.50
2018-02-15T10:00:53.105Z,43.90
2018-02-15T10:03:24.748Z,42.73
2018-02-15T10:05:59.071Z,49.23
2018-02-15T10:08:27.673Z,54.90
2018-02-15T10:10:55.515Z,48.87
2018-02-15T10:13:23.305Z,40.90
2018-02-15T10:15:51.163Z,46.60
2018-02-15T10:18:18.945Z,48.83
2018-02-15T10:20:46.744Z,50.87
2018-02-15T10:23:14.560Z,44.27
2018-02-15T10:25:43.125Z,44.13
2018-02-15T10:28:11.702Z,47.43
2018-02-15T10:30:39.491Z,38.17
2018-02-15T10:33:07.305Z,43.37
2018-02-15T10:35:35.089Z,48.53
2018-02-15T10:38:03.098Z,45.10
2018-02-15T10:40:30.913Z,41.13
2018-02-15T10:42:58.721Z,44.43
2018-02-15T10:45:26.543Z,47.70
2018-02-15T10:47:54.340Z,43.67
2018-02-15T10:50:22.166Z,47.33
2018-02-15T10:52:49.963Z,43.67
2018-02-15T10:55:18.545Z,41.37
2018-02-15T10:57:47.102Z,44.67
2018-02-15T11:00:14.925Z,41.77
2018-02-15T11:02:42.732Z,38.17
2018-02-15T11:05:16.138Z,40.00
2018-02-15T11:07:43.926Z,36.63
2018-02-15T11:10:12.479Z,45.80
2018-02-15T11:12:40.297Z,39.87
2018-02-15T11:15:08.085Z,38.60
2018-02-15T11:17:35.902Z,39.37
2018-02-15T11:20:04.456Z,40.37
2018-02-15T11:22:32.286Z,39.80
2018-02-15T11:25:00.069Z,42.20
2018-02-15T11:27:27.899Z,29.80
2018-02-15T11:29:55.697Z,38.47
2018-02-15T11:32:23.474Z,36.77
2018-02-15T11:34:52.254Z,36.40
2018-02-15T11:37:20.073Z,40.83
2018-02-15T11:39:47.890Z,37.33
2018-02-15T11:42:15.687Z,41.40
2018-02-15T11:44:45.333Z,34.93
2018-02-15T11:47:13.113Z,34.37
2018-02-15T11:49:40.947Z,37.27
2018-02-15T11:52:08.731Z,37.63
2018-02-15T11:54:36.516Z,36.77
2018-02-15T11:57:04.347Z,31.47
2018-02-15T11:59:32.147Z,34.40
2018-02-15T12:02:00.007Z,38.50
2018-02-15T12:04:27.800Z,33.40
2018-02-15T12:06:55.621Z,37.30
2018-02-15T12:09:23.400Z,34.83
2018-02-15T12:11:51.208Z,35.53
2018-02-15T12:14:18.980Z,38.40
2018-02-15T12:16:46.739Z,31.93
2018-02-15T12:19:14.548Z,45.53
2018-02-15T12:21:42.352Z,36.03
2018-02-15T12:24:10.158Z,31.13
2018-02-15T12:26:37.975Z,30.83
2018-02-15T12:29:05.871Z,33.50
2018-02-15T12:31:34.416Z,36.87
2018-02-15T12:34:02.274Z,41.23
2018-02-15T12:36:30.086Z,46.43
2018-02-15T12:38:58.645Z,47.07
2018-02-15T12:41:26.458Z,34.53
2018-02-15T12:43:54.049Z,35.73
2018-02-15T12:46:21.679Z,25.70
2018-02-15T12:48:49.268Z,29.67
2018-02-15T12:51:18.090Z,32.67
2018-02-15T12:53:45.679Z,26.90
2018-02-15T12:56:13.301Z,27.10
2018-02-15T12:58:40.918Z,31.03
2018-02-15T13:01:08.532Z,26.37
2018-02-15T13:03:36.165Z,30.80
2018-02-15T13:06:03.783Z,40.83
2018-02-15T13:08:31.415Z,29.80
2018-02-15T13:10:59.001Z,24.97
2018-02-15T13:13:32.115Z,26.40
2018-02-15T13:16:11.710Z,29.13
2018-02-15T13:18:40.122Z,36.30
2018-02-15T13:21:07.721Z,31.17
2018-02-15T13:23:35.310Z,30.43
2018-02-15T13:26:04.708Z,28.37
2018-02-15T13:28:38.202Z,23.17
2018-02-15T13:31:06.190Z,34.20
2018-02-15T13:33:33.794Z,24.97
2018-02-15T13:36:01.449Z,27.80
2018-02-15T13:38:29.043Z,29.03
2018-02-15T13:40:56.665Z,30.03
2018-02-15T13:43:24.301Z,24.90
2018-02-15T13:45:51.931Z,28.93
2018-02-15T13:48:19.563Z,32.20
2018-02-15T13:50:47.167Z,27.63
2018-02-15T13:53:15.552Z,28.50
2018-02-15T13:55:43.912Z,27.93
2018-02-15T13:58:11.525Z,25.90
2018-02-15T14:00:41.032Z,26.17
2018-02-15T14:03:08.613Z,26.17
2018-02-15T14:05:36.225Z,33.70
2018-02-15T14:08:03.826Z,31.73
2018-02-15T14:10:31.456Z,29.67
2018-02-15T14:12:59.042Z,24.57
2018-02-15T14:15:26.654Z,26.47
2018-02-15T14:17:54.234Z,30.43
2018-02-15T14:20:21.880Z,25.33
2018-02-15T14:22:49.472Z,26.87
2018-02-15T14:25:17.056Z,26.07
2018-02-15T14:27:44.672Z,23.63
2018-02-15T14:30:12.252Z,22.40
2018-02-15T14:32:39.855Z,24.37
2018-02-15T14:35:08.240Z,27.83
2018-02-15T14:37:36.636Z,23.33
2018-02-15T14:40:05.144Z,28.57
2018-02-15T14:42:32.849Z,27.40
2018-02-15T14:45:00.500Z,28.80
2018-02-15T14:47:28.095Z,26.27
2018-02-15T14:49:56.480Z,28.23
2018-02-15T14:52:24.089Z,23.93
2018-02-15T14:54:51.715Z,24.43
2018-02-15T14:57:19.322Z,28.33
2018-02-15T14:59:46.956Z,24.63
2018-02-15T15:02:14.549Z,22.63
2018-02-15T15:04:42.922Z,22.23
2018-02-15T15:07:10.555Z,20.37
2018-02-15T15:09:38.158Z,25.70
2018-02-15T15:12:06.952Z,20.93
2018-02-15T15:14:35.449Z,26.30
2018-02-15T15:17:03.112Z,22.90
2018-02-15T15:19:30.737Z,29.03
2018-02-15T15:21:58.374Z,28.47
2018-02-15T15:24:25.956Z,33.33
2018-02-15T15:26:53.546Z,26.43
2018-02-15T15:29:21.189Z,23.17
2018-02-15T15:31:49.571Z,25.83
2018-02-15T15:34:17.978Z,23.37
2018-02-15T15:36:45.581Z,25.37
2018-02-15T15:39:14.035Z,25.37
2018-02-15T15:41:41.627Z,25.90
2018-02-15T15:44:09.228Z,23.50
2018-02-15T15:46:36.860Z,26.27
2018-02-15T15:49:05.243Z,29.47
2018-02-15T15:51:33.645Z,28.33
2018-02-15T15:54:01.241Z,28.30
2018-02-15T15:56:28.891Z,27.60
2018-02-15T15:58:56.488Z,23.80
2018-02-15T16:01:24.085Z,26.10
2018-02-15T16:03:51.742Z,27.27
2018-02-15T16:06:19.327Z,31.23
2018-02-15T16:08:46.945Z,23.17
2018-02-15T16:11:15.336Z,22.80
2018-02-15T16:13:42.981Z,21.20
2018-02-15T16:16:11.366Z,22.83
2018-02-15T16:18:39.792Z,28.93
2018-02-15T16:21:07.373Z,24.10
2018-02-15T16:23:34.975Z,26.23
2018-02-15T16:26:02.591Z,18.97
2018-02-15T16:28:30.199Z,22.90
2018-02-15T16:30:57.814Z,25.60
2018-02-15T16:33:25.402Z,26.70
2018-02-15T16:35:53.804Z,27.77
2018-02-15T16:38:21.418Z,24.67
2018-02-15T16:40:49.002Z,28.30
2018-02-15T16:43:17.380Z,26.57
2018-02-15T16:45:45.733Z,24.73
2018-02-15T16:48:13.353Z,23.87
2018-02-15T16:50:40.952Z,40.53
2018-02-15T16:53:08.550Z,24.77
2018-02-15T16:55:36.166Z,21.30
2018-02-15T16:58:04.102Z,25.80
2018-02-15T17:00:31.724Z,21.33
2018-02-15T17:03:00.089Z,21.20
2018-02-15T17:05:28.661Z,23.57
2018-02-15T17:07:56.258Z,17.77
2018-02-15T17:10:23.855Z,19.87
2018-02-15T17:12:51.503Z,23.20
2018-02-15T17:15:19.106Z,21.73
2018-02-15T17:17:46.721Z,23.43
2018-02-15T17:20:14.313Z,21.97
2018-02-15T17:22:41.952Z,23.53
2018-02-15T17:25:09.559Z,22.07
2018-02-15T17:27:37.957Z,19.70
2018-02-15T17:30:05.649Z,25.53
2018-02-15T17:32:33.228Z,27.43
2018-02-15T17:35:00.830Z,21.30
2018-02-15T17:37:28.420Z,20.77
2018-02-15T17:39:57.981Z,18.87
2018-02-15T17:42:26.322Z,28.20
2018-02-15T17:44:53.904Z,25.70
2018-02-15T17:47:21.542Z,32.57
2018-02-15T17:49:49.143Z,27.13
2018-02-15T17:52:17.511Z,28.87
2018-02-15T17:54:45.855Z,23.40
2018-02-15T17:57:13.485Z,24.03
2018-02-15T17:59:41.998Z,25.30
2018-02-15T18:02:09.598Z,20.77
2018-02-15T18:04:37.991Z,27.87
2018-02-15T18:07:05.596Z,24.07
2018-02-15T18:09:33.244Z,27.97
2018-02-15T18:12:00.834Z,23.20
2018-02-15T18:14:28.428Z,22.77
2018-02-15T18:16:56.049Z,22.63
2018-02-15T18:19:23.810Z,24.53
2018-02-15T18:21:51.421Z,21.57
2018-02-15T18:24:19.019Z,18.97
2018-02-15T18:26:47.876Z,19.93
2018-02-15T18:29:15.926Z,24.47
2018-02-15T18:31:43.627Z,25.03
2018-02-15T18:34:11.201Z,20.47
2018-02-15T18:36:38.802Z,21.07
2018-02-15T18:39:08.241Z,23.27
2018-02-15T18:41:35.845Z,21.10
2018-02-15T18:44:03.692Z,20.07
2018-02-15T18:46:31.289Z,17.37
2018-02-15T18:48:59.681Z,19.13
2018-02-15T18:51:27.264Z,18.17
2018-02-15T18:53:55.874Z,17.80
2018-02-15T18:56:23.499Z,18.40
2018-02-15T18:58:52.106Z,14.23
2018-02-15T19:01:19.748Z,17.50
2018-02-15T19:03:47.335Z,16.20
2018-02-15T19:06:14.987Z,15.57
2018-02-15T19:08:42.595Z,14.63
2018-02-15T19:11:11.023Z,14.63
2018-02-15T19:13:39.642Z,13.03
2018-02-15T19:16:08.036Z,19.90
2018-02-15T19:18:36.449Z,19.17
2018-02-15T19:21:04.281Z,17.30
2018-02-15T19:23:31.959Z,18.10
2018-02-15T19:25:59.578Z,16.33
2018-02-15T19:28:27.165Z,20.83
2018-02-15T19:30:55.564Z,20.63
2018-02-15T19:33:23.621Z,19.80
2018-02-15T19:35:51.273Z,21.73
2018-02-15T19:38:18.893Z,21.70
2018-02-15T19:40:46.496Z,19.60
2018-02-15T19:43:16.079Z,24.07
2018-02-15T19:45:43.671Z,20.40
2018-02-15T19:48:11.306Z,23.10
2018-02-15T19:50:39.673Z,21.67
2018-02-15T19:53:07.301Z,22.00
2018-02-15T19:55:34.906Z,24.23
2018-02-15T19:58:03.269Z,24.33
2018-02-15T20:00:31.766Z,24.40
2018-02-15T20:03:00.138Z,20.20
2018-02-15T20:05:28.561Z,20.47
2018-02-15T20:07:56.149Z,21.67
2018-02-15T20:10:23.742Z,26.43
2018-02-15T20:12:51.397Z,26.00
2018-02-15T20:15:19.791Z,25.97
2018-02-15T20:17:48.187Z,21.37
2018-02-15T20:20:21.528Z,28.20
2018-02-15T20:22:49.145Z,21.50
2018-02-15T20:25:16.746Z,28.57
2018-02-15T20:27:50.136Z,25.43
2018-02-15T20:30:17.743Z,23.67
2018-02-15T20:32:45.370Z,26.40
2018-02-15T20:35:12.945Z,23.73
2018-02-15T20:37:47.151Z,26.30
2018-02-15T20:40:20.394Z,31.97
2018-02-15T20:42:48.051Z,24.23
2018-02-15T20:45:15.650Z,24.00
2018-02-15T20:47:44.029Z,29.63
2018-02-15T20:50:17.362Z,31.90
2018-02-15T20:52:51.527Z,32.17
2018-02-15T20:55:24.943Z,37.10
2018-02-15T20:57:52.580Z,28.60
2018-02-15T21:00:20.823Z,28.90
2018-02-15T21:02:48.433Z,26.50
2018-02-15T21:05:16.018Z,35.60
2018-02-15T21:07:44.411Z,30.00
2018-02-15T21:10:12.023Z,26.20
2018-02-15T21:12:39.664Z,28.03
2018-02-15T21:15:07.270Z,27.73
2018-02-15T21:17:35.619Z,31.10
2018-02-15T21:20:03.391Z,22.03
2018-02-15T21:22:30.987Z,27.73
2018-02-15T21:24:58.578Z,25.23
2018-02-15T21:27:26.191Z,33.23
2018-02-15T21:29:54.547Z,24.73
2018-02-15T21:32:22.171Z,30.33
2018-02-15T21:34:49.823Z,31.33
2018-02-15T21:37:17.396Z,30.77
2018-02-15T21:39:45.001Z,23.80
2018-02-15T21:42:13.371Z,27.13
2018-02-15T21:44:41.809Z,30.47
2018-02-15T21:47:09.411Z,30.73
2018-02-15T21:49:37.716Z,30.50
2018-02-15T21:52:05.335Z,22.10
2018-02-15T21:54:32.930Z,25.87
2018-02-15T21:57:01.339Z,26.70
2018-02-15T21:59:28.942Z,25.37
2018-02-15T22:01:56.528Z,28.27
2018-02-15T22:04:24.922Z,31.23
2018-02-15T22:06:52.512Z,28.80
2018-02-15T22:09:20.127Z,27.20
2018-02-15T22:11:48.480Z,33.27
2018-02-15T22:14:16.066Z,28.87
2018-02-15T22:16:44.448Z,30.83
2018-02-15T22:19:12.977Z,31.47
2018-02-15T22:21:40.605Z,36.30
2018-02-15T22:24:08.177Z,27.77
2018-02-15T22:26:35.770Z,33.47
2018-02-15T22:29:03.391Z,33.37
2018-02-15T22:31:30.971Z,42.83
2018-02-15T22:33:58.598Z,35.73
2018-02-15T22:36:26.190Z,30.47
2018-02-15T22:38:53.797Z,36.13
2018-02-15T22:41:22.180Z,38.83
2018-02-15T22:43:50.529Z,34.10
2018-02-15T22:46:18.143Z,33.90
2018-02-15T22:48:45.740Z,34.77
2018-02-15T22:51:13.332Z,36.67
2018-02-15T22:53:40.945Z,30.27
2018-02-15T22:56:08.578Z,35.80
2018-02-15T22:58:36.222Z,33.00
2018-02-15T23:01:03.812Z,35.30
2018-02-15T23:03:31.803Z,31.40
2018-02-15T23:06:00.230Z,34.80
2018-02-15T23:08:27.827Z,32.10
2018-02-15T23:10:55.451Z,26.30
2018-02-15T23:13:23.046Z,30.90
2018-02-15T23:15:50.644Z,28.53
2018-02-15T23:18:18.260Z,29.43
2018-02-15T23:20:45.896Z,32.43
2018-02-15T23:23:13.523Z,32.47
2018-02-15T23:25:41.148Z,35.90
2018-02-15T23:28:08.735Z,29.10
2018-02-15T23:30:36.359Z,31.47
2018-02-15T23:33:03.966Z,31.23
2018-02-15T23:35:31.599Z,31.57
2018-02-15T23:37:59.184Z,33.33
2018-02-15T23:40:26.797Z,29.00
2018-02-15T23:42:54.411Z,32.13
2018-02-15T23:45:22.019Z,27.13
2018-02-15T23:47:50.650Z,33.67
2018-02-15T23:50:18.252Z,29.10
2018-02-15T23:52:45.846Z,30.33
2018-02-15T23:55:13.470Z,30.03
2018-02-15T23:57:41.073Z,29.77
